UAL1986 KSFO-PHOG
Flight info
| Callsign | UAL1986 |
|---|---|
| Flight time | N/A |
| Altitude | 34000 |
| Route | GNNRR3 BEBOP R464 BARAZ/N0462F360 R464 BITTA LNDHY1 |
| Aircraft | B38M/M-SDE2E3GHIJ4J7P2RWZ/LB1D1 |
Departure
| Time | 2026-04-30 21:39 |
|---|---|
| Airport | San Francisco International Airport (KSFO) |
Arrival
| Time | N/A |
|---|---|
| Airport | Kahului International Airport (PHOG) |
| Time | Latitude | Longitude | Altitude | Speed | Heading |
|---|---|---|---|---|---|
| 2026-04-30 21:05 | 37.61910 | -122.38624 | 24 ft | 0 kts | 224° |
| 2026-04-30 21:30 | 37.61926 | -122.38604 | 27 ft | 4 kts | 225° |
| 2026-04-30 21:31 | 37.61982 | -122.38589 | 27 ft | 4 kts | 115° |
| 2026-04-30 21:31 | 37.61987 | -122.38549 | 25 ft | 4 kts | 44° |
| 2026-04-30 21:32 | 37.62018 | -122.38527 | 24 ft | 0 kts | 28° |
| 2026-04-30 21:34 | 37.62021 | -122.38525 | 26 ft | 1 kts | 28° |
| 2026-04-30 21:34 | 37.62060 | -122.38428 | 24 ft | 13 kts | 114° |
| 2026-04-30 21:34 | 37.62011 | -122.38308 | 26 ft | 18 kts | 118° |
| 2026-04-30 21:35 | 37.61949 | -122.38164 | 29 ft | 19 kts | 118° |
| 2026-04-30 21:35 | 37.61886 | -122.38011 | 24 ft | 20 kts | 117° |
| 2026-04-30 21:35 | 37.61822 | -122.37850 | 24 ft | 21 kts | 112° |
| 2026-04-30 21:35 | 37.61770 | -122.37674 | 26 ft | 22 kts | 111° |
| 2026-04-30 21:36 | 37.61712 | -122.37494 | 24 ft | 23 kts | 114° |
| 2026-04-30 21:36 | 37.61638 | -122.37315 | 26 ft | 23 kts | 118° |
| 2026-04-30 21:37 | 37.61363 | -122.36776 | 24 ft | 25 kts | 123° |
| 2026-04-30 21:37 | 37.61280 | -122.36575 | 25 ft | 26 kts | 118° |
| 2026-04-30 21:37 | 37.61193 | -122.36370 | 26 ft | 27 kts | 118° |
| 2026-04-30 21:37 | 37.61105 | -122.36158 | 25 ft | 28 kts | 118° |
| 2026-04-30 21:38 | 37.61064 | -122.35950 | 26 ft | 23 kts | 62° |
| 2026-04-30 21:38 | 37.61178 | -122.35897 | 26 ft | 19 kts | 333° |
| 2026-04-30 21:38 | 37.61252 | -122.36032 | 24 ft | 21 kts | 297° |
| 2026-04-30 21:38 | 37.61367 | -122.36304 | 28 ft | 65 kts | 298° |
| 2026-04-30 21:39 | 37.61694 | -122.37086 | 24 ft | 131 kts | 298° |
| 2026-04-30 21:39 | 37.62191 | -122.38253 | 221 ft | 165 kts | 299° |
| 2026-04-30 21:39 | 37.62709 | -122.39544 | 1079 ft | 162 kts | 295° |
| 2026-04-30 21:39 | 37.63247 | -122.40824 | 1798 ft | 168 kts | 297° |
| 2026-04-30 21:40 | 37.63820 | -122.42128 | 2439 ft | 175 kts | 299° |
| 2026-04-30 21:40 | 37.64431 | -122.43507 | 3077 ft | 181 kts | 300° |
| 2026-04-30 21:40 | 37.65062 | -122.44926 | 3567 ft | 197 kts | 300° |
| 2026-04-30 21:40 | 37.65783 | -122.46545 | 3933 ft | 224 kts | 301° |
| 2026-04-30 21:41 | 37.66578 | -122.48327 | 4388 ft | 246 kts | 300° |
| 2026-04-30 21:41 | 37.67123 | -122.50457 | 4930 ft | 267 kts | 273° |
| 2026-04-30 21:41 | 37.66822 | -122.52803 | 5698 ft | 273 kts | 251° |
| 2026-04-30 21:41 | 37.66223 | -122.55102 | 6603 ft | 279 kts | 252° |
| 2026-04-30 21:42 | 37.65632 | -122.57445 | 7465 ft | 282 kts | 252° |
| 2026-04-30 21:42 | 37.65024 | -122.59825 | 8292 ft | 287 kts | 253° |
| 2026-04-30 21:42 | 37.64404 | -122.62240 | 9115 ft | 291 kts | 253° |
| 2026-04-30 21:42 | 37.63773 | -122.64683 | 9955 ft | 295 kts | 253° |
| 2026-04-30 21:43 | 37.63127 | -122.67186 | 10540 ft | 307 kts | 253° |
| 2026-04-30 21:43 | 37.62452 | -122.69791 | 10848 ft | 327 kts | 254° |
| 2026-04-30 21:43 | 37.61727 | -122.72586 | 11137 ft | 347 kts | 253° |
| 2026-04-30 21:43 | 37.60952 | -122.75566 | 11368 ft | 367 kts | 253° |
| 2026-04-30 21:44 | 37.60136 | -122.78707 | 11546 ft | 386 kts | 253° |
| 2026-04-30 21:44 | 37.59281 | -122.81989 | 11775 ft | 401 kts | 253° |
| 2026-04-30 21:44 | 37.58404 | -122.85351 | 12306 ft | 405 kts | 253° |
| 2026-04-30 21:44 | 37.57521 | -122.88735 | 12893 ft | 409 kts | 253° |
| 2026-04-30 21:45 | 37.56627 | -122.92154 | 13435 ft | 413 kts | 254° |
| 2026-04-30 21:45 | 37.55724 | -122.95606 | 13959 ft | 416 kts | 254° |
| 2026-04-30 21:45 | 37.54812 | -122.99083 | 14448 ft | 419 kts | 254° |
| 2026-04-30 21:45 | 37.53899 | -123.02561 | 14959 ft | 421 kts | 254° |
| 2026-04-30 21:46 | 37.52978 | -123.06068 | 15456 ft | 423 kts | 254° |
| 2026-04-30 21:46 | 37.52049 | -123.09595 | 15942 ft | 425 kts | 254° |
| 2026-04-30 21:46 | 37.51116 | -123.13138 | 16425 ft | 427 kts | 254° |
| 2026-04-30 21:46 | 37.50175 | -123.16703 | 16897 ft | 429 kts | 254° |
| 2026-04-30 21:47 | 37.49230 | -123.20278 | 17352 ft | 431 kts | 254° |
| 2026-04-30 21:47 | 37.48280 | -123.23869 | 17810 ft | 433 kts | 254° |
| 2026-04-30 21:47 | 37.47324 | -123.27477 | 18247 ft | 436 kts | 254° |
| 2026-04-30 21:47 | 37.46367 | -123.31084 | 18649 ft | 437 kts | 254° |
| 2026-04-30 21:48 | 37.45412 | -123.34674 | 19025 ft | 439 kts | 254° |
| 2026-04-30 21:48 | 37.44442 | -123.38324 | 19422 ft | 440 kts | 254° |
| 2026-04-30 21:48 | 37.43465 | -123.41986 | 19800 ft | 442 kts | 254° |
| 2026-04-30 21:48 | 37.42482 | -123.45669 | 20181 ft | 444 kts | 254° |
| 2026-04-30 21:49 | 37.41495 | -123.49361 | 20574 ft | 446 kts | 254° |
| 2026-04-30 21:49 | 37.40503 | -123.53069 | 20939 ft | 448 kts | 254° |
| 2026-04-30 21:49 | 37.39506 | -123.56788 | 21331 ft | 450 kts | 254° |
| 2026-04-30 21:49 | 37.38508 | -123.60505 | 21694 ft | 452 kts | 254° |
| 2026-04-30 21:50 | 37.37501 | -123.64253 | 22066 ft | 454 kts | 254° |
| 2026-04-30 21:50 | 37.36483 | -123.68034 | 22431 ft | 456 kts | 254° |
| 2026-04-30 21:50 | 37.35466 | -123.71806 | 22775 ft | 458 kts | 254° |
| 2026-04-30 21:50 | 37.34438 | -123.75612 | 23121 ft | 460 kts | 254° |
| 2026-04-30 21:51 | 37.33407 | -123.79428 | 23471 ft | 462 kts | 254° |
| 2026-04-30 21:51 | 37.32370 | -123.83256 | 23788 ft | 464 kts | 254° |
| 2026-04-30 21:51 | 37.31327 | -123.87105 | 24083 ft | 466 kts | 254° |
| 2026-04-30 21:51 | 37.30285 | -123.90942 | 24398 ft | 467 kts | 254° |
| 2026-04-30 21:52 | 37.29235 | -123.94801 | 24708 ft | 468 kts | 254° |
| 2026-04-30 21:52 | 37.28178 | -123.98682 | 25001 ft | 470 kts | 254° |
| 2026-04-30 21:52 | 37.27117 | -124.02574 | 25303 ft | 472 kts | 254° |
| 2026-04-30 21:52 | 37.26052 | -124.06473 | 25618 ft | 473 kts | 254° |
| 2026-04-30 21:53 | 37.24987 | -124.10366 | 26009 ft | 471 kts | 254° |
| 2026-04-30 21:53 | 37.23924 | -124.14245 | 26427 ft | 469 kts | 254° |
| 2026-04-30 21:53 | 37.22875 | -124.18068 | 26845 ft | 468 kts | 254° |
| 2026-04-30 21:53 | 37.21808 | -124.21949 | 27268 ft | 466 kts | 254° |
| 2026-04-30 21:54 | 37.20770 | -124.25724 | 27681 ft | 464 kts | 254° |
| 2026-04-30 21:54 | 37.19716 | -124.29549 | 28108 ft | 462 kts | 254° |
| 2026-04-30 21:54 | 37.18667 | -124.33350 | 28547 ft | 460 kts | 254° |
| 2026-04-30 21:54 | 37.17619 | -124.37139 | 28992 ft | 458 kts | 255° |
| 2026-04-30 21:55 | 37.16577 | -124.40905 | 29431 ft | 456 kts | 255° |
| 2026-04-30 21:55 | 37.15537 | -124.44658 | 29889 ft | 454 kts | 255° |
| 2026-04-30 21:55 | 37.14501 | -124.48391 | 30287 ft | 452 kts | 255° |
| 2026-04-30 21:55 | 37.13472 | -124.52092 | 30647 ft | 451 kts | 255° |
| 2026-04-30 21:56 | 37.12442 | -124.55794 | 31013 ft | 449 kts | 255° |
| 2026-04-30 21:56 | 37.11414 | -124.59481 | 31362 ft | 447 kts | 255° |
| 2026-04-30 21:56 | 37.10389 | -124.63153 | 31716 ft | 446 kts | 255° |
| 2026-04-30 21:56 | 37.09367 | -124.66809 | 32066 ft | 444 kts | 255° |
| 2026-04-30 21:57 | 37.08344 | -124.70466 | 32410 ft | 443 kts | 255° |
| 2026-04-30 21:57 | 37.07327 | -124.74094 | 32746 ft | 441 kts | 255° |
| 2026-04-30 21:57 | 37.06313 | -124.77709 | 33084 ft | 439 kts | 255° |
| 2026-04-30 21:57 | 37.05304 | -124.81302 | 33416 ft | 438 kts | 255° |
| 2026-04-30 21:58 | 37.04296 | -124.84890 | 33755 ft | 436 kts | 255° |
| 2026-04-30 21:58 | 37.03288 | -124.88471 | 34067 ft | 435 kts | 255° |
| 2026-04-30 21:58 | 37.01287 | -124.95565 | 34119 ft | 433 kts | 255° |
| 2026-04-30 21:59 | 36.99330 | -125.02679 | 34120 ft | 432 kts | 256° |
| 2026-04-30 22:00 | 36.96460 | -125.13342 | 34129 ft | 432 kts | 255° |
| 2026-04-30 22:00 | 36.93574 | -125.24010 | 34142 ft | 432 kts | 255° |
| 2026-04-30 22:01 | 36.91646 | -125.31116 | 34140 ft | 432 kts | 255° |
| 2026-04-30 22:01 | 36.89715 | -125.38211 | 34142 ft | 432 kts | 255° |
| 2026-04-30 22:02 | 36.87777 | -125.45313 | 34149 ft | 432 kts | 255° |
| 2026-04-30 22:02 | 36.86163 | -125.51215 | 34139 ft | 432 kts | 255° |
| 2026-04-30 22:03 | 36.83898 | -125.59472 | 34154 ft | 432 kts | 255° |
| 2026-04-30 22:03 | 36.81946 | -125.66568 | 34153 ft | 432 kts | 255° |
| 2026-04-30 22:04 | 36.80313 | -125.72492 | 34155 ft | 432 kts | 255° |
| 2026-04-30 22:05 | 36.77384 | -125.83080 | 34159 ft | 432 kts | 255° |
| 2026-04-30 22:05 | 36.75421 | -125.90154 | 34165 ft | 432 kts | 255° |
| 2026-04-30 22:06 | 36.73454 | -125.97222 | 34168 ft | 432 kts | 255° |
| 2026-04-30 22:06 | 36.70494 | -126.07825 | 34171 ft | 432 kts | 255° |
| 2026-04-30 22:07 | 36.68514 | -126.14896 | 34171 ft | 432 kts | 254° |
| 2026-04-30 22:07 | 36.66529 | -126.21961 | 34171 ft | 432 kts | 254° |
| 2026-04-30 22:08 | 36.64546 | -126.29004 | 34175 ft | 432 kts | 254° |
| 2026-04-30 22:08 | 36.62553 | -126.36066 | 34181 ft | 432 kts | 254° |
| 2026-04-30 22:09 | 36.60570 | -126.43073 | 34181 ft | 432 kts | 254° |
| 2026-04-30 22:09 | 36.58569 | -126.50124 | 34180 ft | 432 kts | 254° |
| 2026-04-30 22:10 | 36.56568 | -126.57158 | 34185 ft | 432 kts | 254° |
| 2026-04-30 22:10 | 36.54560 | -126.64198 | 34187 ft | 432 kts | 254° |
| 2026-04-30 22:11 | 36.51538 | -126.74757 | 34189 ft | 432 kts | 254° |
| 2026-04-30 22:12 | 36.49534 | -126.81747 | 34191 ft | 431 kts | 254° |
| 2026-04-30 22:12 | 36.47504 | -126.88805 | 34192 ft | 431 kts | 254° |
| 2026-04-30 22:13 | 36.45489 | -126.95774 | 34203 ft | 431 kts | 254° |
| 2026-04-30 22:13 | 36.43457 | -127.02783 | 34198 ft | 431 kts | 254° |
| 2026-04-30 22:14 | 36.41422 | -127.09789 | 34202 ft | 431 kts | 254° |
| 2026-04-30 22:14 | 36.39389 | -127.16772 | 34205 ft | 431 kts | 254° |
| 2026-04-30 22:15 | 36.37347 | -127.23764 | 34201 ft | 431 kts | 253° |
| 2026-04-30 22:15 | 36.35301 | -127.30756 | 34209 ft | 430 kts | 253° |
| 2026-04-30 22:16 | 36.33256 | -127.37726 | 34213 ft | 430 kts | 253° |
| 2026-04-30 22:17 | 36.29172 | -127.51592 | 34217 ft | 430 kts | 253° |
| 2026-04-30 22:17 | 36.26085 | -127.62031 | 34221 ft | 429 kts | 253° |
| 2026-04-30 22:18 | 36.22993 | -127.72446 | 34221 ft | 429 kts | 253° |
| 2026-04-30 22:19 | 36.19898 | -127.82833 | 34230 ft | 429 kts | 253° |
| 2026-04-30 22:20 | 36.16806 | -127.93169 | 34233 ft | 429 kts | 253° |
| 2026-04-30 22:20 | 36.13694 | -128.03538 | 34238 ft | 429 kts | 252° |
| 2026-04-30 22:21 | 36.11610 | -128.10460 | 34240 ft | 429 kts | 252° |
| 2026-04-30 22:21 | 36.09526 | -128.17364 | 34239 ft | 429 kts | 252° |
| 2026-04-30 22:22 | 36.07436 | -128.24271 | 34241 ft | 428 kts | 252° |
| 2026-04-30 22:22 | 36.05345 | -128.31165 | 34248 ft | 428 kts | 252° |
| 2026-04-30 22:23 | 36.03251 | -128.38054 | 34247 ft | 428 kts | 252° |
| 2026-04-30 22:23 | 36.01150 | -128.44947 | 34249 ft | 428 kts | 252° |
| 2026-04-30 22:24 | 35.99061 | -128.51786 | 34253 ft | 428 kts | 252° |
| 2026-04-30 22:24 | 35.96949 | -128.58682 | 34251 ft | 428 kts | 252° |
| 2026-04-30 22:25 | 35.94845 | -128.65537 | 34255 ft | 428 kts | 252° |
| 2026-04-30 22:25 | 35.92728 | -128.72417 | 34253 ft | 428 kts | 252° |
| 2026-04-30 22:26 | 35.89550 | -128.82714 | 34260 ft | 429 kts | 251° |
| 2026-04-30 22:27 | 35.87426 | -128.89574 | 34249 ft | 429 kts | 251° |
| 2026-04-30 22:27 | 35.84231 | -128.99866 | 34261 ft | 429 kts | 251° |
| 2026-04-30 22:28 | 35.81023 | -129.10164 | 34269 ft | 429 kts | 251° |
| 2026-04-30 22:29 | 35.76734 | -129.23871 | 34272 ft | 429 kts | 251° |
| 2026-04-30 22:31 | 35.69209 | -129.47772 | 34276 ft | 429 kts | 250° |
| 2026-04-30 22:32 | 35.63792 | -129.64854 | 34280 ft | 428 kts | 250° |
| 2026-04-30 22:33 | 35.58360 | -129.81887 | 34279 ft | 428 kts | 250° |
| 2026-04-30 22:35 | 35.52915 | -129.98864 | 34290 ft | 429 kts | 250° |
| 2026-04-30 22:36 | 35.47428 | -130.15873 | 34295 ft | 429 kts | 249° |
| 2026-04-30 22:37 | 35.43019 | -130.29469 | 34296 ft | 429 kts | 249° |
| 2026-04-30 22:38 | 35.38596 | -130.43048 | 34303 ft | 429 kts | 249° |
| 2026-04-30 22:39 | 35.35275 | -130.53201 | 34301 ft | 429 kts | 249° |
| 2026-04-30 22:40 | 35.28590 | -130.73540 | 34310 ft | 429 kts | 249° |
| 2026-04-30 22:41 | 35.22987 | -130.90483 | 34306 ft | 430 kts | 249° |
| 2026-04-30 22:43 | 35.16238 | -131.10764 | 34309 ft | 429 kts | 248° |
| 2026-04-30 22:44 | 35.11715 | -131.24281 | 34302 ft | 430 kts | 248° |
| 2026-04-30 22:45 | 35.07183 | -131.37763 | 34845 ft | 430 kts | 247° |
| 2026-04-30 22:45 | 35.04913 | -131.44497 | 35340 ft | 428 kts | 247° |
| 2026-04-30 22:46 | 35.02652 | -131.51188 | 35848 ft | 426 kts | 247° |
| 2026-04-30 22:47 | 34.98149 | -131.64469 | 36313 ft | 421 kts | 247° |
| 2026-04-30 22:48 | 34.93661 | -131.77651 | 36321 ft | 421 kts | 247° |
| 2026-04-30 22:49 | 34.86898 | -131.97407 | 36326 ft | 422 kts | 246° |
| 2026-04-30 22:51 | 34.80080 | -132.17197 | 36329 ft | 423 kts | 246° |
| 2026-04-30 22:52 | 34.77039 | -132.25986 | 36327 ft | 424 kts | 246° |
| 2026-04-30 22:53 | 34.72454 | -132.39187 | 36329 ft | 424 kts | 246° |
| 2026-04-30 22:53 | 34.69000 | -132.49096 | 36332 ft | 425 kts | 246° |
| 2026-04-30 22:55 | 34.63238 | -132.65554 | 36333 ft | 425 kts | 246° |
| 2026-04-30 22:56 | 34.58595 | -132.78757 | 36333 ft | 425 kts | 246° |
| 2026-04-30 22:57 | 34.52774 | -132.95232 | 36336 ft | 425 kts | 246° |
| 2026-04-30 22:58 | 34.48124 | -133.08330 | 36341 ft | 424 kts | 245° |
| 2026-04-30 22:59 | 34.41101 | -133.28010 | 36342 ft | 425 kts | 245° |